Time;durP1;ratioP1;P1;durP2;ratioP2;P2;SDS_P1;SDS_P2;PMS_P1;PMS_P2;Temp;Humidity;BMP_temperature;BMP_pressure;BME280_temperature;BME280_humidity;BME280_pressure;Samples;Min_cycle;Max_cycle;Signal;HPM_P1;HPM_P2
2023/01/21 00:00:49;;;;;;;48.33;26.90;;;1.30;99.90;;;;;;5012707;28;20022;-60
2023/01/21 00:03:15;;;;;;;51.53;26.50;;;1.20;99.90;;;;;;5011536;28;20033;-54
2023/01/21 00:05:40;;;;;;;47.33;28.17;;;1.30;99.90;;;;;;5011611;28;20461;-59
2023/01/21 00:08:06;;;;;;;44.72;26.92;;;1.30;99.90;;;;;;5011726;28;20026;-56
2023/01/21 00:10:32;;;;;;;42.95;26.70;;;1.30;99.90;;;;;;5012193;28;20030;-59
2023/01/21 00:12:57;;;;;;;47.53;27.00;;;1.20;99.90;;;;;;5011275;28;20099;-57
2023/01/21 00:15:23;;;;;;;41.95;25.88;;;1.40;99.90;;;;;;5012092;28;20053;-60
2023/01/21 00:17:51;;;;;;;43.03;26.25;;;1.30;99.90;;;;;;5011831;28;20081;-60
2023/01/21 00:20:17;;;;;;;41.95;26.90;;;1.20;99.90;;;;;;5010797;28;20040;-59
2023/01/21 00:22:42;;;;;;;42.75;28.05;;;1.20;99.90;;;;;;5009843;28;20029;-61
2023/01/21 00:25:09;;;;;;;43.85;26.80;;;1.10;99.90;;;;;;5011821;28;20042;-54
2023/01/21 00:27:34;;;;;;;46.10;25.60;;;1.20;99.90;;;;;;5011822;28;20036;-56
2023/01/21 00:30:00;;;;;;;47.30;25.20;;;1.20;99.90;;;;;;5012366;28;20026;-58
2023/01/21 00:32:25;;;;;;;43.60;27.17;;;1.20;99.90;;;;;;5011317;28;20072;-61
2023/01/21 00:34:51;;;;;;;39.38;24.23;;;1.20;99.90;;;;;;5010237;28;20097;-60
2023/01/21 00:37:16;;;;;;;35.88;22.17;;;1.30;99.90;;;;;;5011921;28;20120;-58
2023/01/21 00:39:42;;;;;;;40.33;23.30;;;1.20;99.90;;;;;;5011771;28;20030;-60
2023/01/21 00:42:10;;;;;;;41.05;24.48;;;1.30;99.90;;;;;;5011276;28;20029;-59
2023/01/21 00:44:36;;;;;;;38.25;23.80;;;1.30;99.90;;;;;;5011700;28;20084;-59
2023/01/21 00:47:01;;;;;;;37.28;21.20;;;1.40;99.90;;;;;;5011575;28;20045;-58
2023/01/21 00:49:27;;;;;;;35.10;21.73;;;1.20;99.90;;;;;;5011757;28;20030;-57
2023/01/21 00:51:52;;;;;;;38.25;22.77;;;1.20;99.90;;;;;;5009763;28;20033;-56
2023/01/21 00:54:18;;;;;;;34.75;21.42;;;1.20;99.90;;;;;;5010991;28;20145;-59
2023/01/21 00:56:43;;;;;;;39.17;23.45;;;1.20;99.90;;;;;;5010052;28;20472;-60
2023/01/21 00:59:09;;;;;;;36.83;22.23;;;1.30;99.90;;;;;;5011442;28;20034;-57
2023/01/21 01:01:37;;;;;;;34.70;21.52;;;1.20;99.90;;;;;;5011328;28;20052;-58
2023/01/21 01:04:04;;;;;;;32.78;21.35;;;1.20;99.90;;;;;;5010596;28;20030;-61
2023/01/21 01:06:30;;;;;;;35.63;22.92;;;1.20;99.90;;;;;;5009864;28;20279;-60
2023/01/21 01:08:57;;;;;;;40.15;23.38;;;1.20;99.90;;;;;;5011226;28;20033;-60
2023/01/21 01:11:25;;;;;;;36.80;22.77;;;1.20;99.90;;;;;;5011345;28;20022;-61
2023/01/21 01:13:52;;;;;;;44.45;25.48;;;1.40;99.90;;;;;;5010445;28;20736;-58
2023/01/21 01:16:18;;;;;;;40.38;23.50;;;1.20;99.90;;;;;;5009713;28;20029;-59
2023/01/21 01:18:44;;;;;;;37.25;23.38;;;1.20;99.90;;;;;;5014253;28;20029;-57
2023/01/21 01:21:15;;;;;;;38.65;24.23;;;1.20;99.90;;;;;;5015183;28;20401;-58
2023/01/21 01:23:42;;;;;;;41.67;24.02;;;1.30;99.90;;;;;;5014497;28;20022;-61
2023/01/21 01:26:10;;;;;;;37.53;24.10;;;1.20;99.90;;;;;;5014716;28;20486;-59
2023/01/21 01:28:36;;;;;;;42.80;24.73;;;1.30;99.90;;;;;;5014973;28;20432;-58
2023/01/21 01:31:09;;;;;;;43.20;24.52;;;1.20;99.90;;;;;;5014833;28;20030;-61
2023/01/21 01:33:35;;;;;;;41.10;24.80;;;1.20;99.90;;;;;;5014338;28;20029;-59
2023/01/21 01:36:02;;;;;;;52.90;28.40;;;1.20;99.90;;;;;;5012488;28;20504;-60
2023/01/21 01:38:28;;;;;;;43.63;27.13;;;1.20;99.90;;;;;;5014749;28;20026;-59
2023/01/21 01:40:53;;;;;;;52.33;27.17;;;1.20;99.90;;;;;;5014455;28;20389;-58
2023/01/21 01:43:22;;;;;;;44.45;27.27;;;1.20;99.90;;;;;;5013968;28;20051;-58
2023/01/21 01:45:48;;;;;;;47.00;27.30;;;1.30;99.90;;;;;;5014398;28;20125;-60
2023/01/21 01:48:19;;;;;;;42.50;25.92;;;1.20;99.90;;;;;;5014451;28;20093;-58
2023/01/21 01:50:46;;;;;;;40.83;25.60;;;1.20;99.90;;;;;;5013327;28;20044;-60
2023/01/21 01:53:14;;;;;;;49.08;27.40;;;1.20;99.90;;;;;;5013835;28;20555;-59
2023/01/21 01:55:41;;;;;;;46.25;26.38;;;1.20;99.90;;;;;;5014245;28;20113;-59
2023/01/21 01:58:11;;;;;;;46.83;25.10;;;1.30;99.90;;;;;;5013297;28;20033;-59
2023/01/21 02:00:37;;;;;;;41.80;25.77;;;1.20;99.90;;;;;;5014439;28;20387;-59
2023/01/21 02:05:47;;;;;;;50.63;26.63;;;1.20;99.90;;;;;;5013876;28;20453;-60
2023/01/21 02:08:16;;;;;;;44.35;25.90;;;1.20;99.90;;;;;;5014254;28;20022;-60
2023/01/21 02:10:42;;;;;;;42.20;25.30;;;1.20;99.90;;;;;;5014288;28;20511;-57
2023/01/21 02:13:08;;;;;;;40.75;24.67;;;1.20;99.90;;;;;;5012202;28;20025;-58
2023/01/21 02:16:02;;;;;;;45.40;26.45;;;1.20;99.90;;;;;;5012840;28;20034;-58
2023/01/21 02:18:47;;;;;;;41.67;24.35;;;1.10;99.90;;;;;;5009258;28;20038;-58
2023/01/21 02:21:41;;;;;;;40.88;24.25;;;1.10;99.90;;;;;;5014113;28;20109;-60
2023/01/21 02:24:35;;;;;;;42.63;24.95;;;1.10;99.90;;;;;;5013451;28;20034;-60
2023/01/21 02:27:16;;;;;;;41.28;25.50;;;1.10;99.90;;;;;;5012470;28;20068;-57
2023/01/21 02:29:56;;;;;;;45.58;25.77;;;1.10;99.90;;;;;;5013431;28;20025;-60
2023/01/21 02:32:46;;;;;;;42.80;24.65;;;1.20;99.90;;;;;;5013241;28;20516;-59
2023/01/21 02:35:41;;;;;;;37.70;24.10;;;1.10;99.90;;;;;;5012071;28;20061;-58
2023/01/21 02:38:36;;;;;;;47.90;25.88;;;1.00;99.90;;;;;;5012548;28;20048;-58
2023/01/21 02:41:33;;;;;;;44.50;27.13;;;1.00;99.90;;;;;;5013652;28;20508;-60
2023/01/21 02:44:24;;;;;;;47.33;25.33;;;1.00;99.90;;;;;;5013167;28;20430;-56
2023/01/21 02:47:01;;;;;;;40.53;24.00;;;0.90;99.90;;;;;;5013993;28;20017;-58
2023/01/21 02:49:55;;;;;;;39.42;22.58;;;0.90;99.90;;;;;;5013040;28;20033;-61
2023/01/21 02:52:23;;;;;;;41.70;24.42;;;0.90;99.90;;;;;;5007301;28;20145;-59
2023/01/21 02:54:53;;;;;;;45.63;24.70;;;0.90;99.90;;;;;;5012462;28;20022;-59
2023/01/21 02:57:34;;;;;;;39.97;22.88;;;0.90;99.90;;;;;;5013372;28;20048;-59
2023/01/21 03:00:05;;;;;;;40.60;23.77;;;0.90;99.90;;;;;;5013371;28;20034;-58
2023/01/21 03:02:43;;;;;;;39.92;23.42;;;0.90;99.90;;;;;;5011316;28;20076;-56
2023/01/21 03:05:38;;;;;;;40.97;23.67;;;0.90;99.90;;;;;;5013222;28;20057;-59
2023/01/21 03:08:11;;;;;;;37.08;21.98;;;0.90;99.90;;;;;;5004395;28;20080;-58
2023/01/21 03:10:47;;;;;;;41.85;22.88;;;1.00;99.90;;;;;;5012013;28;20029;-59
2023/01/21 03:16:55;;;;;;;37.42;22.77;;;1.00;99.90;;;;;;5011261;28;20018;-59
2023/01/21 03:18:55;;;;;;;39.55;22.00;;;0.80;99.90;;;;;;5013211;28;20037;-57
2023/01/21 03:21:27;;;;;;;38.45;22.83;;;0.70;99.90;;;;;;5012812;28;20033;-59
2023/01/21 03:23:56;;;;;;;46.25;22.67;;;0.70;99.90;;;;;;5010895;28;20491;-59
2023/01/21 03:26:27;;;;;;;32.35;21.00;;;0.70;99.90;;;;;;5011407;28;20176;-59
2023/01/21 03:28:56;;;;;;;37.15;21.92;;;0.60;99.90;;;;;;5012740;28;20394;-58
2023/01/21 03:31:27;;;;;;;43.38;23.10;;;0.50;99.90;;;;;;5011334;28;20021;-58
2023/01/21 03:33:55;;;;;;;36.75;20.13;;;0.50;99.90;;;;;;5012017;28;20062;-57
2023/01/21 03:36:51;;;;;;;36.72;20.40;;;0.50;99.90;;;;;;5010767;28;20478;-59
2023/01/21 03:39:41;;;;;;;44.53;21.13;;;;;;;;;;5012664;28;20044;-57
2023/01/21 03:42:08;;;;;;;39.25;20.70;;;0.30;99.90;;;;;;5010987;28;20448;-59
2023/01/21 03:44:34;;;;;;;35.35;19.70;;;0.20;99.90;;;;;;5012614;28;20526;-59
2023/01/21 03:47:24;;;;;;;36.35;22.17;;;0.10;99.90;;;;;;5010948;28;20056;-56
2023/01/21 03:50:08;;;;;;;39.95;21.42;;;0.00;99.90;;;;;;5012452;28;20026;-60
2023/01/21 03:52:38;;;;;;;33.38;19.65;;;0.00;99.90;;;;;;5011582;28;20026;-60
2023/01/21 03:55:07;;;;;;;39.35;22.05;;;;;;;;;;5012503;28;20022;-60
2023/01/21 03:57:33;;;;;;;36.10;22.05;;;;;;;;;;5012560;28;20029;-57
2023/01/21 03:59:59;;;;;;;47.13;21.90;;;;;;;;;;5012991;28;20022;-58
2023/01/21 04:02:25;;;;;;;47.97;21.52;;;;;;;;;;5011457;28;20026;-59
2023/01/21 04:04:52;;;;;;;37.22;21.10;;;;;;;;;;5012312;28;20502;-59
2023/01/21 04:07:18;;;;;;;41.30;21.80;;;-0.30;99.90;;;;;;5012692;28;20105;-59
2023/01/21 04:09:43;;;;;;;48.00;22.38;;;-0.30;99.90;;;;;;5013027;28;20033;-59
2023/01/21 04:12:09;;;;;;;36.65;20.67;;;-0.40;99.90;;;;;;5011264;28;20386;-60
2023/01/21 04:14:35;;;;;;;43.08;22.23;;;-0.40;99.90;;;;;;5010844;28;20025;-60
2023/01/21 04:17:00;;;;;;;39.30;21.88;;;-0.50;99.90;;;;;;5011786;28;20037;-56
2023/01/21 04:19:25;;;;;;;45.33;22.25;;;-0.60;99.90;;;;;;5012095;28;20037;-59
2023/01/21 04:21:51;;;;;;;39.90;21.75;;;-0.60;99.90;;;;;;5011445;28;20422;-58
2023/01/21 04:24:16;;;;;;;41.88;22.02;;;-0.60;99.90;;;;;;5011628;28;20237;-61
2023/01/21 04:26:42;;;;;;;36.85;20.90;;;-0.60;99.90;;;;;;5011545;28;20412;-61
2023/01/21 04:29:07;;;;;;;41.40;21.27;;;-0.60;99.90;;;;;;5011877;28;20025;-59
2023/01/21 04:31:33;;;;;;;40.90;21.35;;;-0.70;99.90;;;;;;5012024;28;20018;-62
2023/01/21 04:33:58;;;;;;;39.17;20.77;;;-0.60;99.90;;;;;;5011113;28;20096;-54
2023/01/21 04:36:24;;;;;;;39.25;20.80;;;-0.60;99.90;;;;;;5008523;28;20502;-60
2023/01/21 04:38:50;;;;;;;34.53;20.02;;;-0.60;99.90;;;;;;5011704;28;20095;-61
2023/01/21 04:41:15;;;;;;;36.22;20.85;;;-0.60;99.90;;;;;;5011550;28;20428;-62
2023/01/21 04:43:40;;;;;;;38.03;20.35;;;-0.60;99.90;;;;;;5010981;28;20030;-59
2023/01/21 04:46:06;;;;;;;39.97;21.30;;;-0.70;99.90;;;;;;5011409;28;20033;-56
2023/01/21 04:48:32;;;;;;;36.58;20.20;;;-0.80;99.90;;;;;;5011604;28;20034;-60
2023/01/21 04:50:57;;;;;;;35.22;19.90;;;-0.80;99.90;;;;;;5011562;28;20022;-59
2023/01/21 04:53:23;;;;;;;35.03;20.00;;;-0.80;99.90;;;;;;5012147;28;20046;-60
2023/01/21 04:55:52;;;;;;;39.47;20.80;;;-0.90;99.90;;;;;;5015776;28;20026;-54
2023/01/21 04:58:19;;;;;;;36.05;18.60;;;-0.90;99.90;;;;;;5015643;28;20116;-59
2023/01/21 05:00:44;;;;;;;36.55;20.88;;;-0.90;99.90;;;;;;5015666;28;20037;-60
2023/01/21 05:03:10;;;;;;;40.78;21.83;;;-1.00;99.90;;;;;;5013401;28;20406;-60
2023/01/21 05:05:35;;;;;;;39.50;20.48;;;-1.00;99.90;;;;;;5015348;28;20033;-54
2023/01/21 05:08:01;;;;;;;41.90;21.52;;;-1.00;99.90;;;;;;5015180;28;20033;-61
2023/01/21 05:10:26;;;;;;;36.95;19.55;;;-1.00;99.90;;;;;;5014113;28;20478;-60
2023/01/21 05:12:52;;;;;;;36.97;19.63;;;-1.00;99.90;;;;;;5014528;28;20104;-60
2023/01/21 05:15:17;;;;;;;41.00;19.35;;;-1.00;99.90;;;;;;5015194;28;20030;-59
2023/01/21 05:17:43;;;;;;;39.38;20.92;;;-1.10;99.90;;;;;;5015081;28;20033;-58
2023/01/21 05:20:10;;;;;;;40.80;19.77;;;-1.10;99.90;;;;;;5015221;28;20038;-59
2023/01/21 05:22:36;;;;;;;40.38;21.52;;;-1.10;99.90;;;;;;5014364;28;20473;-59
2023/01/21 05:25:02;;;;;;;30.75;18.33;;;-1.00;99.90;;;;;;5013669;28;20034;-60
2023/01/21 05:27:28;;;;;;;42.50;21.02;;;-1.10;99.90;;;;;;5037097;22;20034;-50
2023/01/21 05:29:53;;;;;;;34.53;19.27;;;-1.20;99.90;;;;;;5015380;28;20030;-46
2023/01/21 05:32:19;;;;;;;36.92;19.98;;;-1.20;99.90;;;;;;5014520;28;20053;-40
2023/01/21 05:34:44;;;;;;;39.38;20.08;;;-1.30;99.90;;;;;;5013692;28;20025;-44
2023/01/21 05:37:11;;;;;;;35.00;19.38;;;-1.30;99.90;;;;;;5015104;28;20449;-48
2023/01/21 05:39:36;;;;;;;35.60;20.67;;;-1.30;99.90;;;;;;5016308;28;20029;-49
2023/01/21 05:42:02;;;;;;;39.25;19.25;;;-1.30;99.90;;;;;;5015055;28;20026;-44
2023/01/21 05:44:27;;;;;;;35.22;18.38;;;-1.30;99.90;;;;;;5015440;28;20026;-41
2023/01/21 05:46:53;;;;;;;40.13;20.67;;;-1.30;99.90;;;;;;5015575;28;20026;-40
2023/01/21 05:49:18;;;;;;;37.72;20.90;;;-1.30;99.90;;;;;;5014679;28;20034;-49
2023/01/21 05:51:44;;;;;;;36.63;20.65;;;-1.30;99.90;;;;;;5014936;28;20028;-45
2023/01/21 05:54:09;;;;;;;37.53;19.90;;;-1.30;99.90;;;;;;5014268;28;20044;-42
2023/01/21 05:56:35;;;;;;;38.08;20.67;;;-1.30;99.90;;;;;;5014301;28;20030;-43
2023/01/21 05:59:00;;;;;;;38.47;19.92;;;-1.40;99.90;;;;;;5013235;28;20029;-45
2023/01/21 06:01:26;;;;;;;40.80;20.20;;;-1.40;99.90;;;;;;5014517;28;20029;-43
2023/01/21 06:03:51;;;;;;;37.38;20.48;;;-1.40;99.90;;;;;;5012545;28;20397;-45
2023/01/21 06:06:17;;;;;;;38.17;19.33;;;-1.30;99.90;;;;;;5014353;28;20026;-46
2023/01/21 06:08:42;;;;;;;37.88;21.33;;;-1.30;99.90;;;;;;5013007;28;20022;-40
2023/01/21 06:11:08;;;;;;;35.88;20.88;;;-1.20;99.90;;;;;;5014326;28;20022;-50
2023/01/21 06:13:33;;;;;;;35.53;19.90;;;-1.20;99.90;;;;;;5013485;28;20030;-45
2023/01/21 06:15:59;;;;;;;39.40;20.33;;;-1.30;99.90;;;;;;5014198;28;20029;-45
2023/01/21 06:18:25;;;;;;;36.15;20.08;;;-1.30;99.90;;;;;;5013818;28;20025;-46
2023/01/21 06:20:51;;;;;;;36.20;20.33;;;-1.20;99.90;;;;;;5014228;28;20403;-47
2023/01/21 06:23:17;;;;;;;37.28;20.98;;;-1.30;99.90;;;;;;5011957;28;20030;-46
2023/01/21 06:25:42;;;;;;;38.47;19.83;;;-1.30;99.90;;;;;;5014667;28;20548;-45
2023/01/21 06:28:10;;;;;;;32.38;19.20;;;-1.20;99.90;;;;;;5014423;28;20042;-45
2023/01/21 06:30:35;;;;;;;38.67;20.08;;;-1.20;99.90;;;;;;5014361;28;20026;-48
2023/01/21 06:33:01;;;;;;;34.40;19.63;;;-1.30;99.90;;;;;;5013143;28;20033;-45
2023/01/21 06:35:26;;;;;;;30.88;17.65;;;-1.30;99.90;;;;;;5012683;28;20037;-44
2023/01/21 06:37:52;;;;;;;36.40;20.48;;;-1.40;99.90;;;;;;5012382;28;20022;-44
2023/01/21 06:40:17;;;;;;;39.20;21.10;;;-1.40;99.90;;;;;;5013689;28;20022;-47
2023/01/21 06:42:47;;;;;;;35.78;21.38;;;-1.40;99.90;;;;;;5013057;28;20030;-45
2023/01/21 06:45:14;;;;;;;37.63;20.30;;;-1.30;99.90;;;;;;5013470;28;20049;-46
2023/01/21 06:47:41;;;;;;;36.67;21.05;;;-1.30;99.90;;;;;;5013452;28;20025;-46
2023/01/21 06:50:16;;;;;;;42.20;21.48;;;-1.40;99.90;;;;;;5013775;28;20053;-49
2023/01/21 06:52:42;;;;;;;36.93;19.77;;;-1.40;99.90;;;;;;5012865;28;20021;-44
2023/01/21 06:55:08;;;;;;;35.65;20.40;;;-1.50;99.90;;;;;;5013654;28;20031;-42
2023/01/21 06:57:34;;;;;;;35.70;20.02;;;-1.50;99.90;;;;;;5013582;28;20506;-41
2023/01/21 07:00:00;;;;;;;33.78;20.15;;;-1.50;99.90;;;;;;5013853;28;20037;-44
2023/01/21 07:02:25;;;;;;;40.03;19.05;;;-1.50;99.90;;;;;;5012827;28;20394;-46
2023/01/21 07:04:51;;;;;;;41.60;21.42;;;-1.20;99.90;;;;;;5013156;28;20029;-43
2023/01/21 07:07:17;;;;;;;38.08;21.10;;;-1.40;99.90;;;;;;5013348;28;20053;-45
2023/01/21 07:09:42;;;;;;;41.25;21.30;;;-1.30;99.90;;;;;;5013531;28;20087;-45
2023/01/21 07:12:08;;;;;;;46.58;22.88;;;-1.40;99.90;;;;;;5012974;28;20026;-47
2023/01/21 07:14:34;;;;;;;39.75;22.45;;;-1.40;99.90;;;;;;5013155;28;20041;-46
2023/01/21 07:16:59;;;;;;;47.60;24.27;;;-1.50;99.90;;;;;;5012594;28;20026;-39
2023/01/21 07:19:25;;;;;;;45.92;21.60;;;-1.50;99.90;;;;;;5011679;28;20049;-45
2023/01/21 07:21:50;;;;;;;44.50;22.48;;;-1.60;99.90;;;;;;5012949;28;20022;-44
2023/01/21 07:24:16;;;;;;;38.83;20.35;;;-1.60;99.90;;;;;;5012580;28;20397;-46
2023/01/21 07:26:42;;;;;;;43.55;21.42;;;-1.60;99.90;;;;;;5012507;28;20030;-42
2023/01/21 07:29:07;;;;;;;40.22;21.73;;;-1.70;99.90;;;;;;5013191;28;20033;-46
2023/01/21 07:31:33;;;;;;;42.78;22.67;;;-1.70;99.90;;;;;;5012837;28;20018;-43
2023/01/21 07:33:59;;;;;;;43.83;21.88;;;-1.70;99.90;;;;;;5012153;28;20462;-43
2023/01/21 07:36:25;;;;;;;43.00;21.27;;;-1.60;99.90;;;;;;5010938;28;20112;-46
2023/01/21 07:38:51;;;;;;;46.13;23.27;;;-1.60;99.90;;;;;;5013240;28;20022;-43
2023/01/21 07:41:16;;;;;;;40.75;23.02;;;-1.60;99.90;;;;;;5013120;28;20030;-44
2023/01/21 07:43:42;;;;;;;43.97;22.70;;;-1.70;99.90;;;;;;5012254;28;20375;-43
2023/01/21 07:46:08;;;;;;;39.30;22.42;;;-1.60;99.90;;;;;;5012730;28;20436;-48
2023/01/21 07:48:33;;;;;;;37.40;21.67;;;-1.60;99.90;;;;;;5012997;28;20025;-47
2023/01/21 07:50:59;;;;;;;44.30;23.48;;;-1.60;99.90;;;;;;5012359;28;20030;-47
2023/01/21 07:53:25;;;;;;;46.40;22.35;;;-1.70;99.90;;;;;;5011544;28;20438;-49
2023/01/21 07:55:51;;;;;;;47.10;22.65;;;-1.60;99.90;;;;;;5012420;28;20435;-49
2023/01/21 07:58:16;;;;;;;41.15;22.00;;;-1.60;99.90;;;;;;5012812;28;20041;-45
2023/01/21 08:00:42;;;;;;;40.88;21.75;;;-1.60;99.90;;;;;;5012841;28;20030;-45
2023/01/21 08:03:07;;;;;;;48.05;23.42;;;-1.50;99.90;;;;;;5011650;28;20117;-42
2023/01/21 08:05:33;;;;;;;47.28;21.88;;;-1.50;99.90;;;;;;5012430;28;20113;-45
2023/01/21 08:07:59;;;;;;;41.15;22.73;;;-1.40;99.90;;;;;;5012325;28;20026;-47
2023/01/21 08:10:25;;;;;;;44.20;22.52;;;-1.40;99.90;;;;;;5012452;28;20022;-46
2023/01/21 08:12:50;;;;;;;40.13;21.50;;;-1.40;99.90;;;;;;5011424;28;20097;-47
2023/01/21 08:15:16;;;;;;;37.70;20.70;;;-1.40;99.90;;;;;;5012316;28;20105;-46
2023/01/21 08:17:43;;;;;;;45.92;23.55;;;-1.30;99.90;;;;;;5012093;28;20034;-46
2023/01/21 08:20:10;;;;;;;38.55;21.42;;;-1.30;99.90;;;;;;5011988;28;20029;-45
2023/01/21 08:22:37;;;;;;;34.28;20.55;;;-1.20;99.90;;;;;;5011259;28;20461;-45
2023/01/21 08:25:04;;;;;;;35.63;19.55;;;-1.10;99.90;;;;;;5010746;28;20453;-47
2023/01/21 08:27:30;;;;;;;41.58;21.02;;;-1.10;99.90;;;;;;5011576;28;20041;-46
2023/01/21 08:29:55;;;;;;;39.40;20.63;;;-1.00;99.90;;;;;;5012770;28;20083;-51
2023/01/21 08:32:21;;;;;;;39.78;21.95;;;-0.90;99.90;;;;;;5011851;28;20030;-50
2023/01/21 08:34:47;;;;;;;34.75;19.85;;;-1.00;99.90;;;;;;5010861;28;20089;-45
2023/01/21 08:37:12;;;;;;;41.00;22.67;;;-0.90;99.90;;;;;;5012181;28;20044;-48
2023/01/21 08:39:38;;;;;;;35.80;20.35;;;-0.80;99.90;;;;;;5011671;28;20033;-44
2023/01/21 08:42:03;;;;;;;42.40;21.77;;;-0.60;99.90;;;;;;5010855;28;20021;-44
2023/01/21 08:44:29;;;;;;;36.53;21.27;;;-0.50;99.90;;;;;;5010159;28;20032;-48
2023/01/21 08:46:55;;;;;;;43.38;20.70;;;-0.30;99.90;;;;;;5009858;28;20026;-43
2023/01/21 08:49:21;;;;;;;37.83;21.63;;;-0.20;99.90;;;;;;5011300;28;20033;-49
2023/01/21 08:51:47;;;;;;;36.83;19.80;;;-0.10;99.90;;;;;;5011445;28;20029;-43
2023/01/21 08:54:13;;;;;;;36.60;19.88;;;-0.10;99.90;;;;;;5011168;28;20026;-48
2023/01/21 08:56:38;;;;;;;45.08;21.08;;;-0.10;99.90;;;;;;5011369;28;20080;-47
2023/01/21 08:59:04;;;;;;;37.45;21.60;;;0.00;99.90;;;;;;5011529;28;20022;-44
2023/01/21 09:01:30;;;;;;;34.17;19.90;;;0.10;99.90;;;;;;5011769;28;20018;-46
2023/01/21 09:03:57;;;;;;;32.83;19.35;;;0.10;99.90;;;;;;5010922;28;20025;-46
2023/01/21 09:06:24;;;;;;;35.90;20.77;;;0.30;99.90;;;;;;5011247;28;20519;-48
2023/01/21 09:08:50;;;;;;;34.83;20.10;;;0.40;99.90;;;;;;5011660;28;20054;-48
2023/01/21 09:11:16;;;;;;;35.28;19.52;;;0.50;99.90;;;;;;5011409;28;20049;-47
2023/01/21 09:13:43;;;;;;;30.33;18.75;;;0.70;99.90;;;;;;5010704;28;20498;-47
2023/01/21 09:16:12;;;;;;;33.40;19.48;;;0.80;99.90;;;;;;5011716;28;20040;-47
2023/01/21 09:18:38;;;;;;;34.20;19.00;;;0.90;99.90;;;;;;5011578;28;20026;-45
2023/01/21 09:21:05;;;;;;;34.92;18.95;;;0.90;99.90;;;;;;5011556;28;20033;-43
2023/01/21 09:23:33;;;;;;;36.10;19.42;;;1.00;99.90;;;;;;5011071;28;20053;-42
2023/01/21 09:26:20;;;;;;;37.83;20.52;;;1.00;99.90;;;;;;5009968;28;20113;-45
2023/01/21 09:28:51;;;;;;;30.20;18.30;;;1.10;99.90;;;;;;5010115;28;20029;-46
2023/01/21 09:31:20;;;;;;;34.08;19.40;;;1.20;99.90;;;;;;5010355;28;20033;-46
2023/01/21 09:33:47;;;;;;;32.50;19.23;;;1.20;99.90;;;;;;5009332;28;20029;-43
2023/01/21 09:36:18;;;;;;;31.65;17.90;;;1.20;99.90;;;;;;5010219;28;20058;-44
2023/01/21 09:38:46;;;;;;;30.23;18.02;;;1.40;99.90;;;;;;5012514;28;20029;-46
2023/01/21 09:41:19;;;;;;;26.65;17.25;;;1.60;99.90;;;;;;5014831;28;20524;-44
2023/01/21 09:44:11;;;;;;;24.52;14.95;;;1.90;99.90;;;;;;5013997;28;20026;-45
2023/01/21 09:46:54;;;;;;;31.55;15.73;;;2.00;99.90;;;;;;4996191;28;20141;-47
2023/01/21 09:49:40;;;;;;;26.58;14.50;;;2.20;99.90;;;;;;5014743;28;20057;-47
2023/01/21 09:52:43;;;;;;;19.60;13.10;;;2.30;99.90;;;;;;5012646;28;20025;-45
2023/01/21 09:55:34;;;;;;;23.95;13.55;;;1.70;99.90;;;;;;4973191;28;20037;-45
2023/01/21 09:58:12;;;;;;;29.15;13.45;;;1.80;99.90;;;;;;5013488;28;20044;-45
2023/01/21 10:00:57;;;;;;;21.73;13.27;;;1.70;99.90;;;;;;5014209;28;20030;-46
2023/01/21 10:03:47;;;;;;;24.30;13.23;;;1.60;99.90;;;;;;5013724;28;20018;-50
2023/01/21 10:06:20;;;;;;;20.05;12.68;;;1.30;99.90;;;;;;5014274;28;20026;-42
2023/01/21 10:08:49;;;;;;;25.08;12.85;;;1.10;99.90;;;;;;5014565;28;20462;-48
2023/01/21 10:11:30;;;;;;;22.50;12.50;;;1.20;99.90;;;;;;5013942;28;20030;-42
2023/01/21 10:14:33;;;;;;;24.10;13.18;;;1.20;99.90;;;;;;5013646;28;20022;-43
2023/01/21 10:17:03;;;;;;;21.45;11.88;;;1.20;99.90;;;;;;5013549;28;20038;-45
2023/01/21 10:19:40;;;;;;;20.55;10.77;;;1.40;99.90;;;;;;5011827;28;20092;-44
2023/01/21 10:22:14;;;;;;;20.48;11.65;;;1.40;99.90;;;;;;5013216;28;20033;-46
2023/01/21 10:25:02;;;;;;;22.88;11.50;;;1.50;99.90;;;;;;5013296;28;20033;-49
2023/01/21 10:27:33;;;;;;;19.80;11.45;;;1.60;99.90;;;;;;5013772;28;20128;-43
2023/01/21 10:30:08;;;;;;;19.42;10.90;;;1.60;99.90;;;;;;5013925;28;20117;-48
2023/01/21 10:32:36;;;;;;;23.00;10.73;;;1.70;99.90;;;;;;5012907;28;20022;-44
2023/01/21 10:35:14;;;;;;;17.98;10.68;;;1.90;99.90;;;;;;5013327;28;20026;-47
2023/01/21 10:37:51;;;;;;;19.55;11.88;;;1.70;99.90;;;;;;5012872;28;20052;-48
2023/01/21 10:40:43;;;;;;;17.13;9.65;;;1.50;99.90;;;;;;5011206;28;20036;-49
2023/01/21 10:43:17;;;;;;;23.80;12.23;;;1.20;99.90;;;;;;5012643;28;20083;-49
2023/01/21 10:45:58;;;;;;;17.08;11.27;;;1.20;99.90;;;;;;5012318;28;20025;-46
2023/01/21 10:48:36;;;;;;;17.45;10.25;;;1.30;99.90;;;;;;5013676;28;20172;-46
2023/01/21 10:51:21;;;;;;;16.85;9.80;;;1.40;99.90;;;;;;5013053;28;20034;-46
2023/01/21 10:53:59;;;;;;;24.67;12.35;;;1.10;99.90;;;;;;5013241;28;20025;-45
2023/01/21 10:56:36;;;;;;;26.95;11.63;;;1.10;99.90;;;;;;5013326;28;20022;-44
2023/01/21 10:59:07;;;;;;;23.75;12.07;;;1.00;99.90;;;;;;5012731;28;20114;-44
2023/01/21 11:01:36;;;;;;;19.23;12.48;;;0.70;99.90;;;;;;5013772;28;20022;-42
2023/01/21 11:04:12;;;;;;;20.17;11.40;;;0.80;99.90;;;;;;5012935;28;20022;-45
2023/01/21 11:06:39;;;;;;;19.98;11.75;;;0.60;99.90;;;;;;5014111;28;20022;-44
2023/01/21 11:09:08;;;;;;;20.65;12.13;;;0.60;99.90;;;;;;5014829;28;20045;-46
2023/01/21 11:11:35;;;;;;;19.73;12.25;;;0.40;99.90;;;;;;5014551;28;20014;-47
2023/01/21 11:14:01;;;;;;;22.02;12.88;;;0.50;99.90;;;;;;5013303;28;20440;-41
2023/01/21 11:16:47;;;;;;;23.02;13.70;;;0.50;99.90;;;;;;5013479;28;20030;-51
2023/01/21 11:19:16;;;;;;;23.75;13.70;;;0.60;99.90;;;;;;5013112;28;20042;-50
2023/01/21 11:22:01;;;;;;;25.67;14.70;;;0.60;99.90;;;;;;5012384;28;20045;-48
2023/01/21 11:24:28;;;;;;;20.20;12.50;;;0.50;99.90;;;;;;5012992;28;20172;-46
2023/01/21 11:26:56;;;;;;;24.08;13.68;;;0.60;99.90;;;;;;5012077;28;20057;-48
2023/01/21 11:29:23;;;;;;;22.33;11.93;;;0.60;99.90;;;;;;5034264;23;20050;-54
2023/01/21 11:32:04;;;;;;;23.67;13.25;;;0.50;99.90;;;;;;5012464;28;20026;-59
2023/01/21 11:34:30;;;;;;;25.38;13.10;;;0.50;99.90;;;;;;5000311;28;20026;-58
2023/01/21 11:37:04;;;;;;;23.70;13.88;;;0.50;99.90;;;;;;5001556;28;20040;-58
2023/01/21 11:39:39;;;;;;;25.98;14.57;;;0.50;99.90;;;;;;5009855;28;20041;-57
2023/01/21 11:42:06;;;;;;;23.60;14.20;;;0.50;99.90;;;;;;5012305;28;20409;-58
2023/01/21 11:44:33;;;;;;;23.63;14.38;;;0.40;99.90;;;;;;5012826;28;20064;-55
2023/01/21 11:46:58;;;;;;;24.50;12.52;;;0.50;99.90;;;;;;5012904;28;20536;-54
2023/01/21 11:49:27;;;;;;;22.05;13.25;;;0.40;99.90;;;;;;5012780;28;20026;-52
2023/01/21 11:52:14;;;;;;;21.33;11.20;;;0.40;99.90;;;;;;5011113;28;20072;-59
2023/01/21 11:54:40;;;;;;;28.90;13.68;;;0.50;99.90;;;;;;5011368;28;20032;-53
2023/01/21 11:57:18;;;;;;;22.27;12.77;;;0.40;99.90;;;;;;5012546;28;20030;-57
2023/01/21 11:59:46;;;;;;;19.58;11.25;;;0.50;99.90;;;;;;5012753;28;20022;-55
2023/01/21 12:02:17;;;;;;;25.05;13.38;;;0.50;99.90;;;;;;5010079;28;20092;-54
2023/01/21 12:04:53;;;;;;;25.00;14.55;;;0.50;99.90;;;;;;5010911;28;20026;-56
2023/01/21 12:07:21;;;;;;;23.20;14.52;;;0.60;99.90;;;;;;5011341;28;20113;-52
2023/01/21 12:10:07;;;;;;;24.02;13.35;;;0.70;99.90;;;;;;5011237;28;20103;-56
2023/01/21 12:13:05;;;;;;;;;;;0.70;99.90;;;;;;5011080;28;20029;-54
2023/01/21 12:15:54;;;;;;;31.40;14.10;;;0.60;99.90;;;;;;4989684;28;20275;-57
2023/01/21 12:18:28;;;;;;;24.15;12.98;;;0.60;99.90;;;;;;5012721;28;20049;-53
2023/01/21 12:21:21;;;;;;;19.60;12.25;;;0.60;99.90;;;;;;5012164;28;20389;-54
2023/01/21 12:24:05;;;;;;;19.40;12.18;;;0.60;99.90;;;;;;5011301;28;20363;-56
2023/01/21 12:26:44;;;;;;;19.70;13.35;;;0.60;99.90;;;;;;5008042;28;20108;-49
2023/01/21 12:29:28;;;;;;;19.73;12.70;;;0.70;99.90;;;;;;5001929;28;20656;-57
2023/01/21 12:32:17;;;;;;;18.83;10.57;;;0.70;99.90;;;;;;5013194;28;20029;-51
2023/01/21 12:34:56;;;;;;;34.13;12.23;;;0.70;99.90;;;;;;5010021;28;20044;-58
2023/01/21 12:37:28;;;;;;;16.10;10.57;;;0.70;99.90;;;;;;5011807;28;20049;-56
2023/01/21 12:39:58;;;;;;;17.42;10.05;;;0.70;99.90;;;;;;5008947;28;20120;-53
2023/01/21 12:42:32;;;;;;;19.00;11.40;;;0.60;99.90;;;;;;5009598;28;20034;-54
2023/01/21 12:45:05;;;;;;;20.73;9.68;;;0.70;99.90;;;;;;5011074;28;20372;-56
2023/01/21 12:47:46;;;;;;;15.40;9.70;;;0.80;99.90;;;;;;5010445;28;20344;-55
2023/01/21 12:50:24;;;;;;;16.95;10.35;;;0.80;99.90;;;;;;5010504;28;20493;-53
2023/01/21 12:53:16;;;;;;;15.80;9.88;;;0.90;99.90;;;;;;5009850;28;20057;-52
2023/01/21 12:56:12;;;;;;;17.15;10.48;;;1.00;99.90;;;;;;5010311;28;20448;-54
2023/01/21 12:58:47;;;;;;;12.70;8.15;;;1.00;99.90;;;;;;5010585;28;20412;-54